Terminal Aerodrome Forecast
Issued by NWS

Home | Current Version | Previous Version | Text Only | Print | Product List | Glossary On
Versions: 1 2 3 4 5 6 7 8 9 10 11 12 13 14 15 16 17 18
000
FTUS41 KPBZ 280900 AAB
TAFDUJ
TAF AMD
KDUJ 280928Z 2809/2906 28008G16KT 4SM -SHRA OVC005
     FM281200 28007KT P6SM -SHRA OVC008
     FM281500 30006KT P6SM OVC015
     FM282000 31006KT P6SM BKN022=

USA.gov is the U.S. government's official web portal to all federal, state and local government web resources and services.